Dream Diva — 3EKW6 — position and weather

sailwx.info

Track history (hours):
 
Tides and Currents Weather Stations Pressure Air Temp Water Temp Dewpoint Dewpoint Depression Visibility Wind Speed Wind Dir Waves Ship Positions

Dream Diva

Last reported at 2014-Jul-14 09:32 UTC. Time now 2014-Jul-25 15:55 UTC.
Position N 46°13' W 126°38'.
Warning: this ship's position is 11 days out of date.

Length 186 m; draft 6.9 m.

Type: Cargo ship. MMSI: 372856000.

Date/timePositionNaut miles runAvg speedWind from/ knotsBaromVisibWave heightAir tempDewpointWater temp
2014-Jul-14 09:32N 46°13' W 126°38'2018.2
2014-Jul-14 08:25N 46°14' W 126°08'3817.2
2014-Jul-14 06:12N 46°14' W 125°13'1616.9
2014-Jul-14 05:13N 46°13' W 124°50'1217.2
2014-Jul-14 04:32N 46°13' W 124°33'1515.8
2014-Jul-14 03:33N 46°12' W 124°10'1312.9
2014-Jul-14 02:33N 46°12' W 123°52'1313.2
2014-Jul-14 01:33N 46°15' W 123°33'1211.5
2014-Jul-14 00:33N 46°09' W 123°20'1413.6
2014-Jul-13 23:33N 46°08' W 123°00'1111.0
2014-Jul-13 22:33N 45°59' W 122°51'1414.2
2014-Jul-13 21:33N 45°46' W 122°46'7 6.3
2014-Jul-13 20:29N 45°39' W 122°45'0 0.0
2014-Jul-13 19:32N 45°39' W 122°45'0 0.0
2014-Jul-13 18:32N 45°39' W 122°45'0 0.0
2014-Jul-13 17:32N 45°39' W 122°45'0 0.0
2014-Jul-13 16:26N 45°39' W 122°45'0 0.0
2014-Jul-13 15:30N 45°39' W 122°45'0 0.0
2014-Jul-13 12:23N 45°39' W 122°45'0 0.0
2014-Jul-13 11:33N 45°39' W 122°45'0 0.0
2014-Jul-13 10:33N 45°39' W 122°45'0 0.0
2014-Jul-13 09:33N 45°39' W 122°45'0 0.0
2014-Jul-13 08:30N 45°39' W 122°45'0 0.0
2014-Jul-13 06:20N 45°39' W 122°45'0 0.0
2014-Jul-13 05:32N 45°39' W 122°45'0 0.0
2014-Jul-13 04:29N 45°39' W 122°45'0 0.0
2014-Jul-13 03:32N 45°39' W 122°45'0 0.0
2014-Jul-13 02:33N 45°39' W 122°45'8 7.8
2014-Jul-13 01:33N 45°47' W 122°46'1612.9
2014-Jul-13 00:17N 46°02' W 122°53'811.3
2014-Jul-12 23:32N 46°08' W 123°01'1313.2
2014-Jul-12 22:33N 46°09' W 123°20'1111.3
2014-Jul-12 21:33N 46°16' W 123°33'1313.2
2014-Jul-12 20:34N 46°12' W 123°51'1413.6
2014-Jul-12 19:33N 46°13' W 124°10'1212.2
2014-Jul-12 18:33N 46°14' W 124°28'1313.2
2014-Jul-12 17:33N 46°15' W 124°47'1615.6
2014-Jul-12 16:34N 46°17' W 125°09'1515.4
2014-Jul-12 15:33N 46°32' W 125°10'1616.0
2014-Jul-12 14:33N 46°48' W 125°11'1615.8
2014-Jul-12 13:33N 47°04' W 125°10'1615.6
2014-Jul-12 12:33N 47°20' W 125°11'1716.7
2014-Jul-12 11:31N 47°36' W 125°18'1716.7
2014-Jul-12 10:31N 47°52' W 125°25'1616.8
2014-Jul-12 09:33N 48°08' W 125°19'1716.5
2014-Jul-12 08:33N 48°23' W 125°09'1413.5
2014-Jul-12 07:33N 48°31' W 124°52'1616.0
2014-Jul-12 06:33N 48°26' W 124°29'1716.6
2014-Jul-12 05:33N 48°20' W 124°06'1716.7
2014-Jul-12 04:33N 48°16' W 123°41'1313.4
2014-Jul-12 03:33N 48°23' W 123°23'1111.1
2014-Jul-12 02:33N 48°32' W 123°13'1414.1
2014-Jul-12 01:33N 48°45' W 123°06'1312.8
2014-Jul-12 00:33N 48°57' W 123°13'10 9.9
2014-Jul-11 23:34N 49°06' W 123°18'9 9.2
2014-Jul-11 22:33N 49°08' W 123°04'6 5.9
2014-Jul-11 21:29N 49°11' W 122°55'0 0.0
2014-Jul-11 20:29N 49°11' W 122°55'0 0.0
2014-Jul-11 19:32N 49°11' W 122°55'0 0.0
2014-Jul-11 18:32N 49°11' W 122°55'0 0.0
2014-Jul-11 17:32N 49°11' W 122°55'0 0.0
2014-Jul-11 16:32N 49°11' W 122°55'0 0.0
2014-Jul-11 15:32N 49°11' W 122°55'0 0.0
2014-Jul-11 14:32N 49°11' W 122°55'0 0.0
2014-Jul-11 13:32N 49°11' W 122°55'0 0.0
2014-Jul-11 12:32N 49°11' W 122°55'0 0.0
2014-Jul-11 11:32N 49°11' W 122°55'0 0.0
2014-Jul-11 10:32N 49°11' W 122°55'0 0.0
2014-Jul-11 09:32N 49°11' W 122°55'0 0.0
2014-Jul-11 08:32N 49°11' W 122°55'1 1.5
2014-Jul-11 07:33N 49°10' W 122°56'9 9.3
2014-Jul-11 06:33N 49°07' W 123°10'7 7.4
2014-Jul-11 05:33N 49°03' W 123°20'1515.4
2014-Jul-11 04:33N 48°52' W 123°03'1212.3
2014-Jul-11 03:33N 48°42' W 123°13'1515.4
2014-Jul-11 02:34N 48°27' W 123°10'10 9.9
2014-Jul-11 01:33N 48°21' W 123°22'1 0.5
2014-Jul-11 00:31N 48°20' W 123°22'0 0.0
2014-Jul-10 23:31N 48°20' W 123°22'0 0.0
2014-Jul-10 22:31N 48°20' W 123°22'0 0.0
2014-Jul-10 21:31N 48°20' W 123°22'0 0.0
2014-Jul-10 20:31N 48°20' W 123°22'0 0.0
2014-Jul-10 19:31N 48°20' W 123°22'0 0.0
2014-Jul-10 18:31N 48°20' W 123°22'0 0.0
2014-Jul-10 17:33N 48°20' W 123°22'3 3.1
2014-Jul-10 16:33N 48°18' W 123°25'9 9.1
2014-Jul-10 15:33N 48°14' W 123°37'1312.9
2014-Jul-10 14:33N 48°14' W 123°56'1413.5
2014-Jul-10 13:32N 48°20' W 124°15'1212.9
2014-Jul-10 12:33N 48°25' W 124°32'1312.7
2014-Jul-10 11:33N 48°28' W 124°51'1514.7
2014-Jul-10 10:33N 48°29' W 125°13'1515.2
2014-Jul-10 09:33N 48°36' W 125°33'1515.4
2014-Jul-10 08:33N 48°42' W 125°54'1615.6
2014-Jul-10 07:33N 48°49' W 126°15'1616.1
2014-Jul-10 06:33N 48°56' W 126°37'1615.9
2014-Jul-10 05:34N 49°03' W 126°59'1615.6
2014-Jul-10 04:33N 49°10' W 127°20'  
Track history (hours):
 
Tides and Currents Weather Stations Pressure Air Temp Water Temp Dewpoint Dewpoint Depression Visibility Wind Speed Wind Dir Waves Ship Positions

Dream Diva

Last reported at 2014-Jul-14 09:32 UTC. Time now 2014-Jul-25 15:55 UTC.
Position N 46°13' W 126°38'.
Warning: this ship's position is 11 days out of date.

Length 186 m; draft 6.9 m.

Type: Cargo ship. MMSI: 372856000.

Date/timePositionNaut miles runAvg speedWind from/ knotsBaromVisibWave heightAir tempDewpointWater temp
2014-Jul-14 09:32N 46°13' W 126°38'2018.2
2014-Jul-14 08:25N 46°14' W 126°08'3817.2
2014-Jul-14 06:12N 46°14' W 125°13'1616.9
2014-Jul-14 05:13N 46°13' W 124°50'1217.2
2014-Jul-14 04:32N 46°13' W 124°33'1515.8
2014-Jul-14 03:33N 46°12' W 124°10'1312.9
2014-Jul-14 02:33N 46°12' W 123°52'1313.2
2014-Jul-14 01:33N 46°15' W 123°33'1211.5
2014-Jul-14 00:33N 46°09' W 123°20'1413.6
2014-Jul-13 23:33N 46°08' W 123°00'1111.0
2014-Jul-13 22:33N 45°59' W 122°51'1414.2
2014-Jul-13 21:33N 45°46' W 122°46'7 6.3
2014-Jul-13 20:29N 45°39' W 122°45'0 0.0
2014-Jul-13 19:32N 45°39' W 122°45'0 0.0
2014-Jul-13 18:32N 45°39' W 122°45'0 0.0
2014-Jul-13 17:32N 45°39' W 122°45'0 0.0
2014-Jul-13 16:26N 45°39' W 122°45'0 0.0
2014-Jul-13 15:30N 45°39' W 122°45'0 0.0
2014-Jul-13 12:23N 45°39' W 122°45'0 0.0
2014-Jul-13 11:33N 45°39' W 122°45'0 0.0
2014-Jul-13 10:33N 45°39' W 122°45'0 0.0
2014-Jul-13 09:33N 45°39' W 122°45'0 0.0
2014-Jul-13 08:30N 45°39' W 122°45'0 0.0
2014-Jul-13 06:20N 45°39' W 122°45'0 0.0
2014-Jul-13 05:32N 45°39' W 122°45'0 0.0
2014-Jul-13 04:29N 45°39' W 122°45'0 0.0
2014-Jul-13 03:32N 45°39' W 122°45'0 0.0
2014-Jul-13 02:33N 45°39' W 122°45'8 7.8
2014-Jul-13 01:33N 45°47' W 122°46'1612.9
2014-Jul-13 00:17N 46°02' W 122°53'811.3
2014-Jul-12 23:32N 46°08' W 123°01'1313.2
2014-Jul-12 22:33N 46°09' W 123°20'1111.3
2014-Jul-12 21:33N 46°16' W 123°33'1313.2
2014-Jul-12 20:34N 46°12' W 123°51'1413.6
2014-Jul-12 19:33N 46°13' W 124°10'1212.2
2014-Jul-12 18:33N 46°14' W 124°28'1313.2
2014-Jul-12 17:33N 46°15' W 124°47'1615.6
2014-Jul-12 16:34N 46°17' W 125°09'1515.4
2014-Jul-12 15:33N 46°32' W 125°10'1616.0
2014-Jul-12 14:33N 46°48' W 125°11'1615.8
2014-Jul-12 13:33N 47°04' W 125°10'1615.6
2014-Jul-12 12:33N 47°20' W 125°11'1716.7
2014-Jul-12 11:31N 47°36' W 125°18'1716.7
2014-Jul-12 10:31N 47°52' W 125°25'1616.8
2014-Jul-12 09:33N 48°08' W 125°19'1716.5
2014-Jul-12 08:33N 48°23' W 125°09'1413.5
2014-Jul-12 07:33N 48°31' W 124°52'1616.0
2014-Jul-12 06:33N 48°26' W 124°29'1716.6
2014-Jul-12 05:33N 48°20' W 124°06'1716.7
2014-Jul-12 04:33N 48°16' W 123°41'1313.4
2014-Jul-12 03:33N 48°23' W 123°23'1111.1
2014-Jul-12 02:33N 48°32' W 123°13'1414.1
2014-Jul-12 01:33N 48°45' W 123°06'1312.8
2014-Jul-12 00:33N 48°57' W 123°13'10 9.9
2014-Jul-11 23:34N 49°06' W 123°18'9 9.2
2014-Jul-11 22:33N 49°08' W 123°04'6 5.9
2014-Jul-11 21:29N 49°11' W 122°55'0 0.0
2014-Jul-11 20:29N 49°11' W 122°55'0 0.0
2014-Jul-11 19:32N 49°11' W 122°55'0 0.0
2014-Jul-11 18:32N 49°11' W 122°55'0 0.0
2014-Jul-11 17:32N 49°11' W 122°55'0 0.0
2014-Jul-11 16:32N 49°11' W 122°55'0 0.0
2014-Jul-11 15:32N 49°11' W 122°55'0 0.0
2014-Jul-11 14:32N 49°11' W 122°55'0 0.0
2014-Jul-11 13:32N 49°11' W 122°55'0 0.0
2014-Jul-11 12:32N 49°11' W 122°55'0 0.0
2014-Jul-11 11:32N 49°11' W 122°55'0 0.0
2014-Jul-11 10:32N 49°11' W 122°55'0 0.0
2014-Jul-11 09:32N 49°11' W 122°55'0 0.0
2014-Jul-11 08:32N 49°11' W 122°55'1 1.5
2014-Jul-11 07:33N 49°10' W 122°56'9 9.3
2014-Jul-11 06:33N 49°07' W 123°10'7 7.4
2014-Jul-11 05:33N 49°03' W 123°20'1515.4
2014-Jul-11 04:33N 48°52' W 123°03'1212.3
2014-Jul-11 03:33N 48°42' W 123°13'1515.4
2014-Jul-11 02:34N 48°27' W 123°10'10 9.9
2014-Jul-11 01:33N 48°21' W 123°22'1 0.5
2014-Jul-11 00:31N 48°20' W 123°22'0 0.0
2014-Jul-10 23:31N 48°20' W 123°22'0 0.0
2014-Jul-10 22:31N 48°20' W 123°22'0 0.0
2014-Jul-10 21:31N 48°20' W 123°22'0 0.0
2014-Jul-10 20:31N 48°20' W 123°22'0 0.0
2014-Jul-10 19:31N 48°20' W 123°22'0 0.0
2014-Jul-10 18:31N 48°20' W 123°22'0 0.0
2014-Jul-10 17:33N 48°20' W 123°22'3 3.1
2014-Jul-10 16:33N 48°18' W 123°25'9 9.1
2014-Jul-10 15:33N 48°14' W 123°37'1312.9
2014-Jul-10 14:33N 48°14' W 123°56'1413.5
2014-Jul-10 13:32N 48°20' W 124°15'1212.9
2014-Jul-10 12:33N 48°25' W 124°32'1312.7
2014-Jul-10 11:33N 48°28' W 124°51'1514.7
2014-Jul-10 10:33N 48°29' W 125°13'1515.2
2014-Jul-10 09:33N 48°36' W 125°33'1515.4
2014-Jul-10 08:33N 48°42' W 125°54'1615.6
2014-Jul-10 07:33N 48°49' W 126°15'1616.1
2014-Jul-10 06:33N 48°56' W 126°37'1615.9
2014-Jul-10 05:34N 49°03' W 126°59'1615.6
2014-Jul-10 04:33N 49°10' W 127°20'  

Dump ship's entire track history